createdAt,value
2022-09-10T00:01:36.282Z,13.93
2022-09-10T00:04:07.735Z,15.75
2022-09-10T00:06:38.803Z,20.57
2022-09-10T00:09:07.977Z,16.40
2022-09-10T00:11:38.620Z,20.67
2022-09-10T00:14:11.862Z,21.75
2022-09-10T00:16:39.639Z,17.52
2022-09-10T00:19:07.767Z,18.07
2022-09-10T00:21:37.016Z,19.20
2022-09-10T00:24:05.575Z,20.38
2022-09-10T00:26:39.702Z,16.02
2022-09-10T00:29:10.912Z,18.77
2022-09-10T00:31:39.338Z,16.58
2022-09-10T00:34:07.287Z,16.73
2022-09-10T00:36:40.181Z,15.20
2022-09-10T00:39:14.204Z,17.95
2022-09-10T00:41:45.426Z,16.98
2022-09-10T00:44:39.670Z,18.70
2022-09-10T00:47:27.164Z,19.70
2022-09-10T00:50:02.293Z,16.65
2022-09-10T00:52:30.071Z,19.87
2022-09-10T00:54:59.009Z,17.05
2022-09-10T00:57:28.667Z,17.75
2022-09-10T01:00:01.846Z,18.02
2022-09-10T01:02:33.427Z,15.60
2022-09-10T01:05:03.246Z,16.85
2022-09-10T01:07:33.846Z,16.80
2022-09-10T01:10:15.104Z,17.10
2022-09-10T01:13:04.547Z,18.45
2022-09-10T01:16:27.876Z,16.02
2022-09-10T01:19:02.002Z,16.90
2022-09-10T01:21:37.412Z,18.30
2022-09-10T01:24:26.139Z,14.93
2022-09-10T01:27:24.406Z,18.50
2022-09-10T01:30:09.285Z,19.35
2022-09-10T01:32:57.188Z,19.27
2022-09-10T01:35:39.458Z,18.25
2022-09-10T01:38:14.317Z,22.53
2022-09-10T01:40:43.865Z,22.33
2022-09-10T01:43:15.710Z,21.13
2022-09-10T01:46:06.379Z,22.65
2022-09-10T01:49:10.580Z,22.45
2022-09-10T01:51:45.320Z,18.53
2022-09-10T01:54:48.706Z,23.00
2022-09-10T01:57:28.895Z,20.10
2022-09-10T02:00:14.938Z,18.70
2022-09-10T02:02:51.358Z,23.58
2022-09-10T02:05:23.689Z,24.52
2022-09-10T02:08:02.100Z,20.33
2022-09-10T02:10:32.560Z,21.67
2022-09-10T02:13:00.701Z,22.33
2022-09-10T02:16:03.437Z,21.92
2022-09-10T02:18:40.037Z,22.67
2022-09-10T02:21:08.980Z,21.93
2022-09-10T02:23:42.709Z,19.83
2022-09-10T02:26:16.924Z,23.98
2022-09-10T02:28:45.295Z,21.90
2022-09-10T02:31:15.836Z,24.85
2022-09-10T02:33:45.508Z,20.23
2022-09-10T02:36:13.148Z,22.27
2022-09-10T02:38:40.666Z,19.55
2022-09-10T02:41:10.980Z,19.48
2022-09-10T02:43:38.815Z,27.48
2022-09-10T02:46:09.130Z,18.27
2022-09-10T02:48:38.918Z,18.93
2022-09-10T02:51:09.288Z,19.90
2022-09-10T02:53:38.807Z,30.25
2022-09-10T02:56:08.834Z,26.92
2022-09-10T02:58:37.492Z,20.00
2022-09-10T03:01:19.379Z,21.05
2022-09-10T03:03:56.090Z,23.60
2022-09-10T03:06:24.781Z,22.52
2022-09-10T03:08:57.835Z,25.75
2022-09-10T03:11:27.758Z,33.50
2022-09-10T03:13:56.218Z,17.92
2022-09-10T03:16:24.604Z,18.47
2022-09-10T03:18:54.160Z,21.43
2022-09-10T03:21:25.277Z,19.58
2022-09-10T03:23:57.109Z,22.45
2022-09-10T03:26:30.651Z,23.15
2022-09-10T03:28:58.824Z,21.05
2022-09-10T03:31:29.408Z,21.90
2022-09-10T03:33:59.944Z,24.38
2022-09-10T03:36:31.450Z,22.20
2022-09-10T03:39:00.044Z,22.15
2022-09-10T03:41:33.951Z,22.88
2022-09-10T03:44:01.869Z,22.80
2022-09-10T03:46:29.525Z,24.67
2022-09-10T03:49:02.598Z,19.77
2022-09-10T03:51:35.380Z,29.52
2022-09-10T03:54:04.097Z,27.42
2022-09-10T03:56:33.329Z,24.55
2022-09-10T03:59:00.903Z,20.03
2022-09-10T04:01:29.556Z,19.38
2022-09-10T04:03:57.688Z,29.05
2022-09-10T04:06:28.088Z,25.23
2022-09-10T04:08:59.092Z,25.35
2022-09-10T04:11:28.752Z,27.90
2022-09-10T04:13:59.421Z,21.17
2022-09-10T04:16:28.416Z,23.75
2022-09-10T04:18:56.513Z,22.77
2022-09-10T04:21:24.787Z,20.73
2022-09-10T04:23:56.711Z,23.33
2022-09-10T04:26:25.611Z,20.17
2022-09-10T04:28:53.870Z,23.90
2022-09-10T04:31:22.574Z,20.63
2022-09-10T04:33:53.837Z,22.33
2022-09-10T04:36:25.864Z,20.30
2022-09-10T04:38:53.680Z,23.23
2022-09-10T04:41:23.600Z,24.60
2022-09-10T04:43:51.867Z,22.40
2022-09-10T04:46:19.932Z,34.97
2022-09-10T04:48:52.161Z,26.05
2022-09-10T04:51:26.333Z,22.45
2022-09-10T04:53:55.395Z,21.17
2022-09-10T04:56:28.302Z,23.08
2022-09-10T04:58:57.338Z,19.65
2022-09-10T05:01:25.890Z,23.73
2022-09-10T05:03:56.353Z,23.38
2022-09-10T05:06:24.732Z,24.80
2022-09-10T05:08:52.539Z,20.50
2022-09-10T05:11:20.329Z,26.40
2022-09-10T05:13:53.722Z,22.05
2022-09-10T05:16:23.827Z,25.38
2022-09-10T05:18:51.736Z,24.50
2022-09-10T05:21:22.838Z,24.70
2022-09-10T05:23:52.891Z,27.90
2022-09-10T05:26:23.209Z,25.48
2022-09-10T05:28:54.143Z,18.25
2022-09-10T05:31:22.826Z,21.13
2022-09-10T05:33:50.529Z,27.23
2022-09-10T05:36:18.341Z,24.37
2022-09-10T05:38:48.351Z,18.98
2022-09-10T05:41:17.162Z,20.42
2022-09-10T05:43:48.622Z,25.90
2022-09-10T05:46:16.410Z,22.80
2022-09-10T05:48:47.587Z,23.17
2022-09-10T05:51:18.601Z,27.50
2022-09-10T05:53:47.537Z,23.65
2022-09-10T05:56:15.150Z,21.67
2022-09-10T05:58:45.328Z,28.83
2022-09-10T06:01:15.782Z,31.92
2022-09-10T06:03:44.605Z,20.43
2022-09-10T06:06:12.497Z,23.47
2022-09-10T06:08:44.765Z,31.90
2022-09-10T06:11:24.288Z,26.63
2022-09-10T06:13:51.989Z,21.63
2022-09-10T06:16:22.904Z,27.98
2022-09-10T06:18:50.711Z,27.33
2022-09-10T06:21:28.106Z,25.08
2022-09-10T06:23:58.091Z,25.80
2022-09-10T06:26:28.492Z,23.10
2022-09-10T06:29:00.912Z,18.80
2022-09-10T06:31:29.608Z,19.97
2022-09-10T06:33:59.058Z,28.03
2022-09-10T06:36:29.574Z,22.75
2022-09-10T06:38:58.289Z,22.70
2022-09-10T06:41:27.196Z,21.35
2022-09-10T06:44:13.071Z,21.27
2022-09-10T06:49:31.590Z,21.15
2022-09-10T06:51:59.478Z,23.42
2022-09-10T06:54:27.629Z,24.23
2022-09-10T06:56:59.575Z,23.67
2022-09-10T06:59:29.824Z,21.33
2022-09-10T07:01:58.535Z,24.48
2022-09-10T07:04:26.361Z,22.95
2022-09-10T07:06:55.723Z,21.15
2022-09-10T07:09:23.341Z,24.42
2022-09-10T07:11:59.432Z,23.73
2022-09-10T07:14:30.882Z,23.73
2022-09-10T07:16:58.969Z,21.52
2022-09-10T07:19:29.983Z,20.73
2022-09-10T07:21:57.670Z,22.63
2022-09-10T07:24:25.625Z,20.85
2022-09-10T07:27:13.362Z,21.95
2022-09-10T07:29:43.914Z,25.40
2022-09-10T07:32:15.909Z,25.15
2022-09-10T07:34:46.938Z,27.67
2022-09-10T07:37:18.024Z,18.88
2022-09-10T07:39:50.072Z,21.60
2022-09-10T07:42:18.293Z,24.67
2022-09-10T07:44:48.854Z,28.40
2022-09-10T07:47:18.922Z,19.27
2022-09-10T07:49:49.334Z,24.58
2022-09-10T07:52:19.106Z,19.85
2022-09-10T07:54:51.006Z,24.27
2022-09-10T07:57:20.134Z,23.17
2022-09-10T07:59:48.506Z,25.27
2022-09-10T08:02:20.210Z,22.08
2022-09-10T08:04:54.864Z,22.52
2022-09-10T08:07:23.679Z,22.92
2022-09-10T08:09:51.500Z,23.73
2022-09-10T08:12:20.349Z,23.67
2022-09-10T08:14:50.993Z,17.63
2022-09-10T08:17:21.006Z,21.63
2022-09-10T08:19:51.143Z,22.48
2022-09-10T08:22:20.557Z,20.27
2022-09-10T08:24:55.881Z,25.58
2022-09-10T08:27:28.012Z,21.20
2022-09-10T08:29:57.969Z,23.37
2022-09-10T08:32:25.799Z,22.15
2022-09-10T08:34:58.872Z,22.38
2022-09-10T08:37:32.553Z,25.38
2022-09-10T08:40:01.027Z,21.55
2022-09-10T08:42:43.148Z,23.38
2022-09-10T08:45:19.563Z,22.47
2022-09-10T08:48:10.771Z,25.95
2022-09-10T08:50:47.021Z,23.00
2022-09-10T08:53:26.246Z,24.98
2022-09-10T08:56:02.554Z,22.40
2022-09-10T08:58:44.293Z,21.73
2022-09-10T09:01:32.275Z,20.40
2022-09-10T09:04:06.284Z,19.95
2022-09-10T09:06:44.695Z,21.05
2022-09-10T09:09:15.876Z,22.38
2022-09-10T09:12:17.449Z,20.98
2022-09-10T09:15:18.387Z,18.97
2022-09-10T09:18:00.708Z,20.80
2022-09-10T09:20:54.966Z,23.80
2022-09-10T09:23:47.953Z,20.13
2022-09-10T09:26:37.875Z,22.30
2022-09-10T09:29:32.281Z,18.17
2022-09-10T09:32:05.871Z,21.70
2022-09-10T09:34:44.544Z,19.20
2022-09-10T09:37:32.722Z,19.42
2022-09-10T09:40:25.850Z,22.65
2022-09-10T09:43:15.778Z,19.20
2022-09-10T09:45:44.229Z,17.80
2022-09-10T09:48:19.124Z,19.67
2022-09-10T09:50:50.791Z,19.90
2022-09-10T09:53:27.956Z,17.90
2022-09-10T09:55:58.691Z,26.42
2022-09-10T09:58:28.353Z,19.77
2022-09-10T10:01:05.430Z,18.65
2022-09-10T10:03:39.377Z,20.50
2022-09-10T10:06:09.321Z,17.07
2022-09-10T10:08:38.559Z,20.53
2022-09-10T10:11:18.918Z,19.75
2022-09-10T10:13:53.227Z,16.98
2022-09-10T10:16:40.418Z,16.65
2022-09-10T10:19:28.171Z,20.80
2022-09-10T10:21:58.548Z,21.85
2022-09-10T10:27:37.146Z,22.73
2022-09-10T10:30:18.226Z,16.63
2022-09-10T10:32:58.662Z,19.08
2022-09-10T10:35:56.722Z,16.50
2022-09-10T10:38:47.229Z,15.40
2022-09-10T10:41:24.665Z,14.90
2022-09-10T10:44:07.538Z,18.00
2022-09-10T10:46:56.506Z,17.58
2022-09-10T10:50:06.591Z,16.48
2022-09-10T10:52:53.869Z,15.88
2022-09-10T10:55:28.388Z,19.57
2022-09-10T10:58:13.145Z,16.43
2022-09-10T11:00:47.731Z,19.58
2022-09-10T11:04:02.153Z,15.25
2022-09-10T11:06:39.820Z,17.90
2022-09-10T11:09:16.682Z,17.08
2022-09-10T11:11:52.899Z,18.30
2022-09-10T11:14:30.413Z,19.83
2022-09-10T11:17:12.508Z,17.30
2022-09-10T11:20:05.318Z,22.40
2022-09-10T11:23:01.187Z,15.30
2022-09-10T11:25:32.790Z,15.75
2022-09-10T11:28:10.378Z,19.50
2022-09-10T11:30:41.784Z,16.17
2022-09-10T11:33:25.634Z,18.63
2022-09-10T11:36:15.947Z,19.80
2022-09-10T11:38:53.242Z,17.10
2022-09-10T11:41:28.873Z,17.83
2022-09-10T11:44:04.900Z,17.47
2022-09-10T11:46:45.386Z,18.20
2022-09-10T11:49:21.907Z,13.48
2022-09-10T11:51:50.517Z,17.67
2022-09-10T11:54:32.561Z,17.60
2022-09-10T11:57:32.368Z,15.43
2022-09-10T12:00:01.047Z,18.87
2022-09-10T12:02:59.374Z,17.13
2022-09-10T12:05:53.692Z,19.70
2022-09-10T12:08:33.718Z,16.73
2022-09-10T12:11:35.485Z,16.40
2022-09-10T12:14:17.187Z,19.80
2022-09-10T12:16:56.990Z,15.90
2022-09-10T12:19:33.780Z,17.50
2022-09-10T12:22:09.449Z,15.50
2022-09-10T12:24:39.834Z,18.10
2022-09-10T12:27:15.620Z,21.05
2022-09-10T12:29:43.495Z,16.90
2022-09-10T12:32:27.303Z,23.07
2022-09-10T12:35:41.687Z,19.23
2022-09-10T12:38:47.964Z,19.45
2022-09-10T12:41:22.494Z,19.08
2022-09-10T12:43:52.464Z,18.60
2022-09-10T12:46:25.887Z,25.77
2022-09-10T12:48:56.927Z,19.73
2022-09-10T12:51:33.002Z,18.70
2022-09-10T12:54:29.050Z,23.70
2022-09-10T12:57:22.369Z,26.80
2022-09-10T13:00:22.531Z,19.25
2022-09-10T13:03:09.811Z,18.90
2022-09-10T13:05:54.432Z,19.10
2022-09-10T13:08:31.013Z,15.23
2022-09-10T13:10:59.165Z,19.77
2022-09-10T13:13:45.675Z,21.15
2022-09-10T13:16:44.984Z,18.63
2022-09-10T13:19:19.703Z,15.53
2022-09-10T13:21:48.305Z,21.47
2022-09-10T13:24:36.486Z,16.08
2022-09-10T13:27:13.720Z,23.20
2022-09-10T13:29:45.433Z,19.70
2022-09-10T13:32:34.779Z,21.00
2022-09-10T13:35:31.863Z,16.65
2022-09-10T13:38:28.510Z,19.50
2022-09-10T13:41:22.336Z,21.25
2022-09-10T13:44:12.842Z,21.38
2022-09-10T13:46:48.562Z,15.73
2022-09-10T13:49:31.725Z,18.08
2022-09-10T13:52:07.995Z,19.63
2022-09-10T13:57:49.461Z,18.48
2022-09-10T14:00:23.861Z,17.42
2022-09-10T14:02:54.683Z,18.77
2022-09-10T14:05:26.709Z,19.00
2022-09-10T14:08:00.662Z,19.67
2022-09-10T14:10:29.107Z,17.70
2022-09-10T14:12:58.429Z,18.45
2022-09-10T14:15:33.729Z,20.33
2022-09-10T14:18:01.769Z,17.50
2022-09-10T14:20:35.122Z,18.65
2022-09-10T14:23:07.072Z,18.50
2022-09-10T14:25:38.728Z,16.60
2022-09-10T14:28:27.709Z,21.10
2022-09-10T14:31:26.772Z,17.55
2022-09-10T14:33:56.598Z,15.95
2022-09-10T14:36:30.906Z,19.77
2022-09-10T14:39:15.936Z,19.83
2022-09-10T14:41:44.273Z,19.38
2022-09-10T14:44:24.632Z,16.27
2022-09-10T14:47:00.233Z,19.40
2022-09-10T14:49:37.005Z,17.08
2022-09-10T14:52:08.664Z,18.57
2022-09-10T14:54:36.783Z,14.45
2022-09-10T14:57:14.305Z,18.08
2022-09-10T14:59:44.072Z,12.55
2022-09-10T15:02:27.523Z,19.88
2022-09-10T15:04:55.954Z,20.17
2022-09-10T15:07:28.027Z,19.10
2022-09-10T15:09:56.267Z,15.90
2022-09-10T15:12:27.077Z,14.05
2022-09-10T15:14:57.354Z,18.05
2022-09-10T15:17:26.234Z,16.55
2022-09-10T15:19:57.322Z,15.77
2022-09-10T15:22:29.990Z,21.13
2022-09-10T15:25:10.431Z,18.63
2022-09-10T15:27:39.069Z,21.60
2022-09-10T15:30:09.140Z,16.13
2022-09-10T15:32:37.015Z,16.33
2022-09-10T15:35:07.608Z,24.30
2022-09-10T15:37:37.867Z,16.92
2022-09-10T15:40:07.489Z,20.90
2022-09-10T15:42:37.210Z,17.15
2022-09-10T15:45:05.630Z,18.45
2022-09-10T15:47:33.969Z,18.87
2022-09-10T15:50:04.567Z,22.10
2022-09-10T15:52:33.445Z,20.77
2022-09-10T15:55:01.177Z,16.35
2022-09-10T15:57:31.179Z,22.17
2022-09-10T16:00:04.211Z,19.55
2022-09-10T16:02:31.794Z,18.63
2022-09-10T16:05:02.841Z,15.73
2022-09-10T16:07:30.847Z,18.60
2022-09-10T16:09:59.884Z,20.42
2022-09-10T16:12:28.184Z,18.05
2022-09-10T16:14:56.391Z,18.60
2022-09-10T16:17:25.712Z,22.00
2022-09-10T16:19:59.447Z,17.73
2022-09-10T16:22:30.690Z,18.80
2022-09-10T16:24:59.726Z,14.40
2022-09-10T16:27:30.424Z,14.98
2022-09-10T16:30:01.537Z,13.90
2022-09-10T16:32:31.776Z,21.13
2022-09-10T16:35:00.846Z,16.23
2022-09-10T16:37:28.610Z,18.67
2022-09-10T16:39:56.721Z,15.75
2022-09-10T16:42:25.458Z,21.02
2022-09-10T16:44:53.372Z,19.50
2022-09-10T16:47:21.336Z,21.40
2022-09-10T16:49:49.186Z,17.80
2022-09-10T16:52:17.068Z,18.30
2022-09-10T16:54:46.688Z,20.60
2022-09-10T16:57:14.464Z,19.52
2022-09-10T16:59:42.121Z,20.45
2022-09-10T17:02:10.463Z,19.60
2022-09-10T17:04:39.095Z,21.20
2022-09-10T17:07:07.590Z,22.13
2022-09-10T17:12:19.098Z,23.30
2022-09-10T17:14:59.178Z,18.10
2022-09-10T17:17:27.519Z,19.73
2022-09-10T17:19:57.159Z,18.53
2022-09-10T17:22:24.835Z,19.05
2022-09-10T17:24:57.100Z,22.63
2022-09-10T17:27:30.810Z,23.50
2022-09-10T17:29:58.720Z,18.42
2022-09-10T17:32:27.533Z,20.20
2022-09-10T17:37:43.597Z,19.67
2022-09-10T17:40:12.429Z,16.83
2022-09-10T17:42:40.755Z,19.73
2022-09-10T17:45:13.332Z,20.17
2022-09-10T17:47:41.022Z,18.10
2022-09-10T17:50:09.691Z,22.15
2022-09-10T17:52:37.607Z,15.65
2022-09-10T17:55:24.179Z,19.60
2022-09-10T17:58:02.801Z,21.67
2022-09-10T18:00:32.636Z,22.07
2022-09-10T18:03:03.977Z,22.73
2022-09-10T18:05:31.873Z,21.25
2022-09-10T18:07:59.658Z,20.73
2022-09-10T18:10:27.262Z,23.02
2022-09-10T18:12:58.358Z,21.20
2022-09-10T18:15:30.785Z,20.97
2022-09-10T18:17:59.897Z,23.58
2022-09-10T18:20:29.449Z,21.58
2022-09-10T18:23:03.722Z,20.75
2022-09-10T18:25:36.073Z,22.23
2022-09-10T18:28:04.697Z,21.10
2022-09-10T18:30:34.813Z,20.87
2022-09-10T18:33:02.525Z,19.95
2022-09-10T18:35:32.089Z,19.88
2022-09-10T18:38:00.124Z,18.17
2022-09-10T18:40:28.705Z,15.98
2022-09-10T18:42:56.306Z,17.97
2022-09-10T18:45:24.171Z,14.03
2022-09-10T18:47:52.996Z,13.13
2022-09-10T18:50:22.897Z,14.48
2022-09-10T18:52:50.518Z,12.52
2022-09-10T18:55:18.196Z,11.52
2022-09-10T18:57:48.807Z,9.93
2022-09-10T19:00:16.900Z,12.93
2022-09-10T19:02:45.914Z,12.35
2022-09-10T19:05:14.571Z,16.98
2022-09-10T19:07:43.711Z,11.95
2022-09-10T19:10:11.930Z,18.08
2022-09-10T19:12:52.246Z,10.50
2022-09-10T19:15:19.875Z,10.47
2022-09-10T19:17:51.803Z,10.93
2022-09-10T19:20:20.371Z,9.55
2022-09-10T19:22:48.461Z,12.00
2022-09-10T19:25:18.063Z,14.05
2022-09-10T19:27:46.002Z,12.30
2022-09-10T19:30:14.964Z,14.50
2022-09-10T19:32:43.855Z,15.35
2022-09-10T19:35:12.968Z,12.10
2022-09-10T19:37:42.810Z,12.88
2022-09-10T19:40:14.950Z,17.00
2022-09-10T19:42:42.850Z,11.77
2022-09-10T19:45:12.918Z,14.30
2022-09-10T19:47:40.693Z,12.05
2022-09-10T19:50:09.283Z,12.95
2022-09-10T19:52:41.163Z,13.05
2022-09-10T19:55:09.513Z,14.90
2022-09-10T19:57:37.417Z,12.73
2022-09-10T20:00:07.984Z,15.43
2022-09-10T20:02:44.248Z,14.13
2022-09-10T20:05:11.936Z,14.85
2022-09-10T20:07:39.916Z,14.48
2022-09-10T20:10:10.924Z,12.60
2022-09-10T20:12:39.098Z,14.07
2022-09-10T20:15:07.981Z,14.88
2022-09-10T20:17:38.642Z,11.32
2022-09-10T20:20:07.669Z,12.63
2022-09-10T20:22:38.630Z,11.97
2022-09-10T20:25:07.184Z,10.23
2022-09-10T20:27:34.883Z,15.65
2022-09-10T20:30:07.105Z,13.63
2022-09-10T20:32:34.774Z,15.60
2022-09-10T20:35:05.745Z,10.40
2022-09-10T20:37:37.054Z,14.47
2022-09-10T20:40:08.845Z,13.65
2022-09-10T20:42:39.656Z,12.73
2022-09-10T20:45:08.027Z,14.80
2022-09-10T20:47:43.540Z,11.65
2022-09-10T20:50:14.994Z,13.63
2022-09-10T20:52:43.869Z,11.90
2022-09-10T20:55:17.875Z,13.30
2022-09-10T20:57:45.658Z,14.10
2022-09-10T21:00:19.510Z,14.27
2022-09-10T21:02:50.471Z,14.90
2022-09-10T21:05:20.938Z,16.13
2022-09-10T21:07:50.433Z,15.10
2022-09-10T21:10:23.602Z,13.40
2022-09-10T21:12:51.353Z,16.48
2022-09-10T21:15:21.232Z,14.10
2022-09-10T21:17:49.239Z,15.63
2022-09-10T21:20:17.235Z,13.27
2022-09-10T21:22:45.339Z,15.85
2022-09-10T21:25:13.275Z,14.48
2022-09-10T21:27:43.465Z,19.38
2022-09-10T21:30:12.763Z,16.03
2022-09-10T21:32:40.913Z,14.40
2022-09-10T21:35:37.035Z,12.68
2022-09-10T21:38:15.474Z,13.73
2022-09-10T21:40:58.731Z,11.95
2022-09-10T22:28:21.616Z,18.25
2022-09-10T22:30:52.330Z,20.27
2022-09-10T22:33:22.904Z,18.13
2022-09-10T22:35:50.659Z,15.88
2022-09-10T22:38:20.716Z,18.67
2022-09-10T22:40:53.965Z,16.95
2022-09-10T22:43:21.774Z,19.33
2022-09-10T22:45:49.562Z,15.60
2022-09-10T22:48:20.261Z,16.67
2022-09-10T22:50:48.098Z,17.25
2022-09-10T22:53:16.689Z,15.20
2022-09-10T22:55:44.632Z,14.52
2022-09-10T22:58:16.918Z,17.50
2022-09-10T23:00:45.128Z,16.05
2022-09-10T23:03:13.028Z,15.32
2022-09-10T23:05:40.970Z,18.50
2022-09-10T23:08:08.624Z,17.95
2022-09-10T23:10:36.466Z,17.37
2022-09-10T23:13:04.534Z,15.37
2022-09-10T23:15:33.365Z,15.23
2022-09-10T23:18:05.865Z,14.55
2022-09-10T23:20:33.581Z,14.15
2022-09-10T23:23:01.401Z,16.67
2022-09-10T23:25:31.660Z,17.83
2022-09-10T23:28:03.338Z,14.90
2022-09-10T23:30:38.304Z,13.48
2022-09-10T23:33:08.292Z,16.75
2022-09-10T23:35:36.009Z,14.07
2022-09-10T23:38:03.634Z,13.07
2022-09-10T23:40:34.193Z,15.60
2022-09-10T23:43:02.074Z,13.85
2022-09-10T23:45:30.510Z,16.50
2022-09-10T23:47:59.803Z,12.13
2022-09-10T23:50:29.313Z,12.30
2022-09-10T23:52:57.473Z,11.37
2022-09-10T23:55:28.173Z,12.50
2022-09-10T23:57:55.772Z,14.73
